createdAt,value
2018-08-07T00:00:37.739Z,24.04
2018-08-07T00:03:08.414Z,24.07
2018-08-07T00:05:38.674Z,24.10
2018-08-07T00:08:09.285Z,23.97
2018-08-07T00:10:39.783Z,23.97
2018-08-07T00:13:10.093Z,23.97
2018-08-07T00:15:43.012Z,23.97
2018-08-07T00:18:13.693Z,23.96
2018-08-07T00:21:16.526Z,23.82
2018-08-07T00:23:47.522Z,23.54
2018-08-07T00:26:23.409Z,23.25
2018-08-07T00:28:53.653Z,23.08
2018-08-07T00:31:23.975Z,23.02
2018-08-07T00:33:54.053Z,22.95
2018-08-07T00:36:27.245Z,22.75
2018-08-07T00:38:57.712Z,22.70
2018-08-07T00:41:27.692Z,22.67
2018-08-07T00:43:58.836Z,22.56
2018-08-07T00:46:28.812Z,22.45
2018-08-07T00:48:59.003Z,22.35
2018-08-07T00:51:29.067Z,22.23
2018-08-07T00:53:59.517Z,22.25
2018-08-07T00:56:29.655Z,22.29
2018-08-07T00:59:00.423Z,22.54
2018-08-07T01:01:30.535Z,22.80
2018-08-07T01:04:01.301Z,22.90
2018-08-07T01:06:31.623Z,22.69
2018-08-07T01:09:01.744Z,22.45
2018-08-07T01:11:32.188Z,22.31
2018-08-07T01:14:02.374Z,22.21
2018-08-07T01:16:32.778Z,22.14
2018-08-07T01:19:02.934Z,22.10
2018-08-07T01:21:33.132Z,22.06
2018-08-07T01:24:03.269Z,22.05
2018-08-07T01:26:34.208Z,22.12
2018-08-07T01:29:05.315Z,22.23
2018-08-07T01:31:35.560Z,22.31
2018-08-07T01:34:05.672Z,22.43
2018-08-07T01:36:36.082Z,22.42
2018-08-07T01:39:21.204Z,22.35
2018-08-07T01:41:52.448Z,22.26
2018-08-07T01:44:22.634Z,22.26
2018-08-07T01:46:52.680Z,22.57
2018-08-07T01:49:23.186Z,23.14
2018-08-07T01:51:53.911Z,23.33
2018-08-07T01:54:24.149Z,23.22
2018-08-07T01:56:55.384Z,22.89
2018-08-07T01:59:26.551Z,22.68
2018-08-07T02:01:58.223Z,22.53
2018-08-07T02:04:38.791Z,22.38
2018-08-07T02:07:13.269Z,22.24
2018-08-07T02:09:43.735Z,22.13
2018-08-07T02:12:14.796Z,22.00
2018-08-07T02:14:44.886Z,21.92
2018-08-07T02:17:15.907Z,22.00
2018-08-07T02:22:37.357Z,22.42
2018-08-07T02:25:16.165Z,22.77
2018-08-07T02:27:48.673Z,22.87
2018-08-07T02:30:21.071Z,22.50
2018-08-07T02:32:57.512Z,22.21
2018-08-07T02:35:28.350Z,21.98
2018-08-07T02:37:59.694Z,21.93
2018-08-07T02:40:29.726Z,22.46
2018-08-07T02:42:59.855Z,22.76
2018-08-07T02:45:30.667Z,22.50
2018-08-07T02:48:00.737Z,22.21
2018-08-07T02:50:47.514Z,21.84
2018-08-07T02:53:18.791Z,21.73
2018-08-07T02:55:48.879Z,21.60
2018-08-07T02:58:19.086Z,21.62
2018-08-07T03:00:49.203Z,21.64
2018-08-07T03:03:19.351Z,21.57
2018-08-07T03:05:57.347Z,21.60
2018-08-07T03:08:27.690Z,21.83
2018-08-07T03:10:58.501Z,21.82
2018-08-07T03:13:28.606Z,21.73
2018-08-07T03:15:59.134Z,21.67
2018-08-07T03:18:29.217Z,21.61
2018-08-07T03:20:59.282Z,21.54
2018-08-07T03:23:29.507Z,21.50
2018-08-07T03:25:59.884Z,21.46
2018-08-07T03:28:37.693Z,21.38
2018-08-07T03:31:24.937Z,21.35
2018-08-07T03:33:59.370Z,21.35
2018-08-07T03:36:29.471Z,21.34
2018-08-07T03:38:59.548Z,21.27
2018-08-07T03:41:29.544Z,21.10
2018-08-07T03:43:59.561Z,21.00
2018-08-07T03:46:29.514Z,20.99
2018-08-07T03:48:59.503Z,20.93
2018-08-07T03:51:29.451Z,20.92
2018-08-07T03:54:00.079Z,20.92
2018-08-07T03:56:29.994Z,20.86
2018-08-07T03:58:59.963Z,20.80
2018-08-07T04:01:30.057Z,20.74
2018-08-07T04:04:00.137Z,20.72
2018-08-07T04:06:30.206Z,20.94
2018-08-07T04:09:00.228Z,21.02
2018-08-07T04:11:30.273Z,21.00
2018-08-07T04:14:01.180Z,21.05
2018-08-07T04:16:32.950Z,21.49
2018-08-07T04:19:02.979Z,21.27
2018-08-07T04:21:32.955Z,21.02
2018-08-07T04:24:03.040Z,20.88
2018-08-07T04:26:33.135Z,20.83
2018-08-07T04:29:03.891Z,20.98
2018-08-07T04:31:36.927Z,21.03
2018-08-07T04:34:07.844Z,21.00
2018-08-07T04:36:37.905Z,20.99
2018-08-07T04:39:11.014Z,20.95
2018-08-07T04:41:42.189Z,20.91
2018-08-07T04:44:12.965Z,20.96
2018-08-07T04:46:43.066Z,21.07
2018-08-07T04:49:14.886Z,21.13
2018-08-07T04:51:46.983Z,21.33
2018-08-07T04:54:18.309Z,21.47
2018-08-07T04:56:48.336Z,21.72
2018-08-07T04:59:18.824Z,21.87
2018-08-07T05:01:48.988Z,21.98
2018-08-07T05:04:20.136Z,22.41
2018-08-07T05:06:50.192Z,22.99
2018-08-07T05:09:20.156Z,23.09
2018-08-07T05:11:51.659Z,23.22
2018-08-07T05:14:22.449Z,23.43
2018-08-07T05:16:53.602Z,23.59
2018-08-07T05:19:24.296Z,23.78
2018-08-07T05:21:54.750Z,23.94
2018-08-07T05:24:26.056Z,24.18
2018-08-07T05:26:57.150Z,24.37
2018-08-07T05:29:27.247Z,24.45
2018-08-07T05:31:57.331Z,24.70
2018-08-07T05:34:28.741Z,24.95
2018-08-07T05:36:59.335Z,25.06
2018-08-07T05:39:29.529Z,25.05
2018-08-07T05:42:00.350Z,25.19
2018-08-07T05:44:31.600Z,25.10
2018-08-07T05:47:01.832Z,25.71
2018-08-07T05:49:31.957Z,25.35
2018-08-07T05:52:02.282Z,25.17
2018-08-07T05:54:32.642Z,25.28
2018-08-07T05:57:04.176Z,25.48
2018-08-07T05:59:34.680Z,25.88
2018-08-07T06:02:05.012Z,26.14
2018-08-07T06:04:36.133Z,26.51
2018-08-07T06:07:07.316Z,26.70
2018-08-07T06:09:37.785Z,26.95
2018-08-07T06:12:08.144Z,27.01
2018-08-07T06:14:38.983Z,26.95
2018-08-07T06:17:09.241Z,27.22
2018-08-07T06:19:39.424Z,27.61
2018-08-07T06:22:09.993Z,27.26
2018-08-07T06:24:40.068Z,27.43
2018-08-07T06:27:10.340Z,27.87
2018-08-07T06:29:40.959Z,27.94
2018-08-07T06:32:11.052Z,27.98
2018-08-07T06:34:41.521Z,28.10
2018-08-07T06:37:12.202Z,28.36
2018-08-07T06:39:42.237Z,28.73
2018-08-07T06:42:13.733Z,28.98
2018-08-07T06:44:43.868Z,28.92
2018-08-07T06:47:14.745Z,29.11
2018-08-07T06:49:44.859Z,29.53
2018-08-07T06:52:15.402Z,29.64
2018-08-07T06:54:45.614Z,29.30
2018-08-07T06:57:16.681Z,29.18
2018-08-07T06:59:46.703Z,29.30
2018-08-07T07:02:16.888Z,29.20
2018-08-07T07:04:47.871Z,29.67
2018-08-07T07:07:17.953Z,29.92
2018-08-07T07:09:48.074Z,29.90
2018-08-07T07:12:18.475Z,29.84
2018-08-07T07:14:48.441Z,29.58
2018-08-07T07:17:18.709Z,29.33
2018-08-07T07:19:49.083Z,29.47
2018-08-07T07:22:19.144Z,29.74
2018-08-07T07:24:49.200Z,29.96
2018-08-07T07:31:16.784Z,30.51
2018-08-07T07:33:46.856Z,30.61
2018-08-07T07:36:16.953Z,30.81
2018-08-07T07:38:47.094Z,31.02
2018-08-07T07:41:17.119Z,31.19
2018-08-07T07:43:47.188Z,31.03
2018-08-07T07:46:17.312Z,31.25
2018-08-07T07:48:47.456Z,31.26
2018-08-07T07:51:17.431Z,31.71
2018-08-07T07:53:47.460Z,31.98
2018-08-07T07:56:17.647Z,32.40
2018-08-07T07:58:47.677Z,32.18
2018-08-07T08:01:17.699Z,32.36
2018-08-07T08:03:47.796Z,31.67
2018-08-07T08:06:17.944Z,31.43
2018-08-07T08:08:47.960Z,31.62
2018-08-07T08:11:18.009Z,31.70
2018-08-07T08:13:48.128Z,32.09
2018-08-07T08:16:18.171Z,32.23
2018-08-07T08:18:48.365Z,32.34
2018-08-07T08:21:19.133Z,32.66
2018-08-07T08:23:49.147Z,32.72
2018-08-07T08:26:19.162Z,33.29
2018-08-07T08:28:49.162Z,33.48
2018-08-07T08:31:19.189Z,33.14
2018-08-07T08:33:49.265Z,33.15
2018-08-07T08:36:19.335Z,32.40
2018-08-07T08:38:49.553Z,32.86
2018-08-07T08:41:19.530Z,32.50
2018-08-07T08:43:49.557Z,32.23
2018-08-07T08:46:19.464Z,31.85
2018-08-07T08:48:49.511Z,32.64
2018-08-07T08:51:19.521Z,33.32
2018-08-07T08:53:49.521Z,33.02
2018-08-07T08:56:19.528Z,32.87
2018-08-07T08:58:49.705Z,33.03
2018-08-07T09:01:19.792Z,33.28
2018-08-07T09:03:51.135Z,33.64
2018-08-07T09:06:21.220Z,33.32
2018-08-07T09:08:51.251Z,33.25
2018-08-07T09:11:21.247Z,33.08
2018-08-07T09:13:51.335Z,32.48
2018-08-07T09:16:21.352Z,33.59
2018-08-07T09:18:51.376Z,33.92
2018-08-07T09:21:21.270Z,33.88
2018-08-07T09:23:51.227Z,32.95
2018-08-07T09:26:21.264Z,33.52
2018-08-07T09:28:51.259Z,32.97
2018-08-07T09:31:21.351Z,33.81
2018-08-07T09:33:51.384Z,34.27
2018-08-07T09:36:21.363Z,34.59
2018-08-07T09:38:51.453Z,33.16
2018-08-07T09:41:21.542Z,33.05
2018-08-07T09:43:51.779Z,33.67
2018-08-07T09:46:41.228Z,35.08
2018-08-07T09:57:18.940Z,34.23
2018-08-07T09:59:48.953Z,34.95
2018-08-07T10:02:24.183Z,35.76
2018-08-07T10:04:54.268Z,35.87
2018-08-07T10:07:24.597Z,35.59
2018-08-07T10:09:55.018Z,35.68
2018-08-07T10:12:25.055Z,35.87
2018-08-07T10:14:55.100Z,36.00
2018-08-07T10:17:25.184Z,35.68
2018-08-07T10:19:55.192Z,35.47
2018-08-07T10:22:25.270Z,35.81
2018-08-07T10:24:55.210Z,34.59
2018-08-07T10:27:25.199Z,34.39
2018-08-07T10:29:55.148Z,35.09
2018-08-07T10:32:25.241Z,36.00
2018-08-07T10:34:55.226Z,35.87
2018-08-07T10:37:25.252Z,35.39
2018-08-07T10:39:55.143Z,35.94
2018-08-07T10:42:25.107Z,36.17
2018-08-07T10:44:56.176Z,36.39
2018-08-07T10:47:26.210Z,36.45
2018-08-07T10:49:56.264Z,36.01
2018-08-07T10:52:26.267Z,34.69
2018-08-07T10:54:56.194Z,35.19
2018-08-07T10:57:26.309Z,35.07
2018-08-07T10:59:56.140Z,34.13
2018-08-07T11:02:26.126Z,35.29
2018-08-07T11:04:56.200Z,35.35
2018-08-07T11:07:26.204Z,36.38
2018-08-07T11:09:56.260Z,35.33
2018-08-07T11:12:26.359Z,35.04
2018-08-07T11:14:56.385Z,35.96
2018-08-07T11:17:26.419Z,35.75
2018-08-07T11:19:56.436Z,35.77
2018-08-07T11:22:26.502Z,35.85
2018-08-07T11:24:56.602Z,35.43
2018-08-07T11:27:26.562Z,35.05
2018-08-07T11:29:56.516Z,35.06
2018-08-07T11:32:26.626Z,35.02
2018-08-07T11:34:56.568Z,36.26
2018-08-07T11:37:26.596Z,35.80
2018-08-07T11:39:56.729Z,35.58
2018-08-07T11:42:27.015Z,35.71
2018-08-07T11:44:57.020Z,35.74
2018-08-07T11:47:27.109Z,36.23
2018-08-07T11:49:57.063Z,35.15
2018-08-07T11:52:27.057Z,35.21
2018-08-07T11:54:57.130Z,35.00
2018-08-07T11:57:27.251Z,34.36
2018-08-07T11:59:57.204Z,34.93
2018-08-07T12:14:25.532Z,35.06
2018-08-07T12:16:57.460Z,35.13
2018-08-07T12:19:40.151Z,34.99
2018-08-07T12:32:36.729Z,35.67
2018-08-07T12:35:08.063Z,35.73
2018-08-07T12:37:38.628Z,36.42
2018-08-07T12:40:20.290Z,37.55
2018-08-07T12:42:51.060Z,37.75
2018-08-07T12:45:20.999Z,36.33
2018-08-07T12:47:51.264Z,37.72
2018-08-07T12:50:22.156Z,38.55
2018-08-07T12:52:53.145Z,38.92
2018-08-07T12:55:24.055Z,38.89
2018-08-07T12:57:54.617Z,37.95
2018-08-07T13:00:26.791Z,36.89
2018-08-07T13:02:57.198Z,36.31
2018-08-07T13:05:28.160Z,35.54
2018-08-07T13:07:59.433Z,35.18
2018-08-07T13:10:29.602Z,35.35
2018-08-07T13:12:59.745Z,35.66
2018-08-07T13:15:36.206Z,35.70
2018-08-07T13:18:06.264Z,35.28
2018-08-07T13:20:36.479Z,35.31
2018-08-07T13:23:06.683Z,35.37
2018-08-07T13:25:37.049Z,35.03
2018-08-07T13:28:07.237Z,34.47
2018-08-07T13:30:37.251Z,33.97
2018-08-07T13:33:07.306Z,33.32
2018-08-07T13:35:37.384Z,32.64
2018-08-07T13:38:07.430Z,32.27
2018-08-07T13:40:37.396Z,32.16
2018-08-07T13:43:07.861Z,31.94
2018-08-07T13:45:37.895Z,31.87
2018-08-07T13:48:08.000Z,31.63
2018-08-07T13:50:37.943Z,31.39
2018-08-07T13:53:08.098Z,31.23
2018-08-07T13:55:38.418Z,31.06
2018-08-07T13:58:08.572Z,31.17
2018-08-07T14:00:38.570Z,31.14
2018-08-07T14:03:09.020Z,31.10
2018-08-07T14:05:39.714Z,31.30
2018-08-07T14:08:09.687Z,31.41
2018-08-07T14:10:40.545Z,31.43
2018-08-07T14:13:10.863Z,31.29
2018-08-07T14:15:40.837Z,31.31
2018-08-07T14:18:10.974Z,30.94
2018-08-07T14:20:41.008Z,31.11
2018-08-07T14:23:11.244Z,31.16
2018-08-07T14:25:42.313Z,31.21
2018-08-07T14:28:13.447Z,31.04
2018-08-07T14:30:44.900Z,31.03
2018-08-07T14:33:17.371Z,31.11
2018-08-07T14:35:47.920Z,31.13
2018-08-07T14:38:17.892Z,31.05
2018-08-07T14:40:47.917Z,31.03
2018-08-07T14:43:17.930Z,31.09
2018-08-07T14:45:48.221Z,31.08
2018-08-07T14:48:24.816Z,31.23
2018-08-07T14:51:34.098Z,31.35
2018-08-07T14:54:04.582Z,31.55
2018-08-07T14:56:35.636Z,31.71
2018-08-07T14:59:06.006Z,31.72
2018-08-07T15:01:45.818Z,31.97
2018-08-07T15:04:17.066Z,31.98
2018-08-07T15:06:49.393Z,32.01
2018-08-07T15:09:19.369Z,32.16
2018-08-07T15:11:49.300Z,31.73
2018-08-07T15:14:19.428Z,31.74
2018-08-07T15:16:49.496Z,31.80
2018-08-07T15:19:20.108Z,31.97
2018-08-07T15:21:50.528Z,31.96
2018-08-07T15:24:24.172Z,31.75
2018-08-07T15:26:55.137Z,31.70
2018-08-07T15:29:25.382Z,31.64
2018-08-07T15:31:55.581Z,31.60
2018-08-07T15:34:25.770Z,31.70
2018-08-07T15:36:55.684Z,31.73
2018-08-07T15:42:06.383Z,31.93
2018-08-07T15:44:36.508Z,32.00
2018-08-07T15:47:06.547Z,32.02
2018-08-07T15:49:37.276Z,31.89
2018-08-07T15:52:07.237Z,31.86
2018-08-07T15:54:37.289Z,30.56
2018-08-07T15:57:07.241Z,28.81
2018-08-07T15:59:37.155Z,28.24
2018-08-07T16:02:07.209Z,27.87
2018-08-07T16:04:37.268Z,27.49
2018-08-07T16:07:07.507Z,27.18
2018-08-07T16:09:37.576Z,26.99
2018-08-07T16:12:07.627Z,26.49
2018-08-07T16:14:37.675Z,26.14
2018-08-07T16:17:08.481Z,26.38
2018-08-07T16:19:39.314Z,26.61
2018-08-07T16:22:09.345Z,26.76
2018-08-07T16:24:39.352Z,26.94
2018-08-07T16:27:09.364Z,27.16
2018-08-07T16:29:39.470Z,27.34
2018-08-07T16:32:16.316Z,27.68
2018-08-07T16:34:47.948Z,27.86
2018-08-07T16:37:17.948Z,28.19
2018-08-07T16:39:48.060Z,28.48
2018-08-07T16:42:18.051Z,28.68
2018-08-07T16:44:48.184Z,28.96
2018-08-07T16:47:18.077Z,29.54
2018-08-07T16:49:48.175Z,29.27
2018-08-07T16:52:18.317Z,28.78
2018-08-07T16:54:50.066Z,28.09
2018-08-07T16:57:20.296Z,27.88
2018-08-07T16:59:50.452Z,27.80
2018-08-07T17:02:20.563Z,27.79
2018-08-07T17:04:50.676Z,27.93
2018-08-07T17:07:20.761Z,27.65
2018-08-07T17:09:50.780Z,27.32
2018-08-07T17:12:20.733Z,26.72
2018-08-07T17:14:50.796Z,26.15
2018-08-07T17:17:20.727Z,26.02
2018-08-07T17:19:51.140Z,25.72
2018-08-07T17:22:22.286Z,25.64
2018-08-07T17:24:54.259Z,25.63
2018-08-07T17:27:24.668Z,25.67
2018-08-07T17:29:55.952Z,25.59
2018-08-07T17:32:32.414Z,25.50
2018-08-07T17:35:02.876Z,25.57
2018-08-07T17:37:33.163Z,25.60
2018-08-07T17:40:03.479Z,25.64
2018-08-07T17:42:35.599Z,25.64
2018-08-07T17:45:06.554Z,25.60
2018-08-07T17:47:36.568Z,25.52
2018-08-07T17:50:08.232Z,25.52
2018-08-07T17:52:38.256Z,25.64
2018-08-07T17:55:09.467Z,25.88
2018-08-07T17:57:40.063Z,25.96
2018-08-07T18:00:27.198Z,25.68
2018-08-07T18:02:57.283Z,25.55
2018-08-07T18:05:27.345Z,25.69
2018-08-07T18:08:04.188Z,25.70
2018-08-07T18:10:37.428Z,25.57
2018-08-07T18:13:07.530Z,25.39
2018-08-07T18:15:37.650Z,25.30
2018-08-07T18:36:07.160Z,24.98
2018-08-07T18:39:15.585Z,24.71
2018-08-07T18:41:44.577Z,24.58
2018-08-07T18:44:14.068Z,24.49
2018-08-07T18:46:43.134Z,24.40
2018-08-07T18:49:12.591Z,24.35
2018-08-07T18:51:41.711Z,24.49
2018-08-07T18:54:10.805Z,24.49
2018-08-07T18:56:39.788Z,24.52
2018-08-07T18:59:08.905Z,24.31
2018-08-07T19:01:38.059Z,24.09
2018-08-07T19:04:07.226Z,24.10
2018-08-07T19:06:36.564Z,24.18
2018-08-07T19:12:54.777Z,24.19
2018-08-07T19:18:35.534Z,23.68
2018-08-07T19:21:04.748Z,23.54
2018-08-07T19:23:34.125Z,23.43
2018-08-07T19:26:03.350Z,23.37
2018-08-07T19:28:32.475Z,23.39
2018-08-07T19:31:02.297Z,23.37
2018-08-07T19:33:31.568Z,23.29
2018-08-07T19:36:00.688Z,23.26
2018-08-07T19:38:30.644Z,23.31
2018-08-07T19:40:59.743Z,23.37
2018-08-07T19:43:29.007Z,23.27
2018-08-07T19:46:04.929Z,23.17
2018-08-07T19:48:34.331Z,23.08
2018-08-07T19:51:04.929Z,23.03
2018-08-07T19:53:34.037Z,22.97
2018-08-07T19:56:03.369Z,22.95
2018-08-07T19:58:33.991Z,22.77
2018-08-07T20:01:03.237Z,22.67
2018-08-07T20:03:32.507Z,22.59
2018-08-07T20:06:03.129Z,22.57
2018-08-07T20:08:33.577Z,22.55
2018-08-07T20:11:02.796Z,22.60
2018-08-07T20:13:32.383Z,22.52
2018-08-07T20:16:01.572Z,22.45
2018-08-07T20:18:30.663Z,22.35
2018-08-07T20:20:59.738Z,22.63
2018-08-07T20:23:29.043Z,22.80
2018-08-07T20:25:58.512Z,22.78
2018-08-07T20:28:28.360Z,22.81
2018-08-07T20:30:57.536Z,22.98
2018-08-07T20:33:27.013Z,22.82
2018-08-07T20:35:56.026Z,22.76
2018-08-07T20:38:25.097Z,22.80
2018-08-07T20:40:54.362Z,22.88
2018-08-07T20:43:23.696Z,22.78
2018-08-07T20:45:52.841Z,22.78
2018-08-07T20:57:38.732Z,22.85
2018-08-07T21:00:09.638Z,22.78
2018-08-07T21:02:39.253Z,22.80
2018-08-07T21:05:08.325Z,22.75
2018-08-07T21:07:38.660Z,22.76
2018-08-07T21:10:10.617Z,22.58
2018-08-07T21:12:42.102Z,22.50
2018-08-07T21:15:12.172Z,22.52
2018-08-07T21:17:41.730Z,22.59
2018-08-07T21:20:14.788Z,22.63
2018-08-07T21:22:44.913Z,22.68
2018-08-07T21:25:16.041Z,22.65
2018-08-07T21:27:45.817Z,22.51
2018-08-07T21:30:22.459Z,22.32
2018-08-07T21:32:51.448Z,22.22
2018-08-07T21:35:22.383Z,22.11
2018-08-07T21:37:51.558Z,22.33
2018-08-07T21:40:30.343Z,22.43
2018-08-07T21:43:02.663Z,22.68
2018-08-07T21:45:35.235Z,22.94
2018-08-07T21:48:06.666Z,22.97
2018-08-07T21:50:36.093Z,22.91
2018-08-07T21:53:09.595Z,22.69
2018-08-07T21:55:40.491Z,22.29
2018-08-07T21:58:09.685Z,22.05
2018-08-07T22:00:44.308Z,21.80
2018-08-07T22:03:13.590Z,21.76
2018-08-07T22:05:43.000Z,21.89
2018-08-07T22:08:13.735Z,21.87
2018-08-07T22:10:43.325Z,21.70
2018-08-07T22:13:12.641Z,21.52
2018-08-07T22:15:42.280Z,21.23
2018-08-07T22:18:12.632Z,21.23
2018-08-07T22:21:24.627Z,21.54
2018-08-07T22:23:57.394Z,21.73
2018-08-07T22:26:28.110Z,21.81
2018-08-07T22:29:00.987Z,21.59
2018-08-07T22:31:30.292Z,21.29
2018-08-07T22:33:59.456Z,21.04
2018-08-07T22:36:28.472Z,21.42
2018-08-07T22:38:57.479Z,21.48
2018-08-07T22:41:26.562Z,21.38
2018-08-07T22:43:55.685Z,21.48
2018-08-07T22:46:41.773Z,21.70
2018-08-07T22:49:13.117Z,22.17
2018-08-07T22:51:42.415Z,22.26
2018-08-07T22:54:11.507Z,22.01
2018-08-07T22:56:41.141Z,21.71
2018-08-07T22:59:10.346Z,21.40
2018-08-07T23:01:40.025Z,21.21
2018-08-07T23:04:09.929Z,21.21
2018-08-07T23:06:39.598Z,21.51
2018-08-07T23:12:58.484Z,21.85
2018-08-07T23:15:27.818Z,21.84
2018-08-07T23:17:58.118Z,21.73
2018-08-07T23:20:27.802Z,21.54
2018-08-07T23:22:58.568Z,21.59
2018-08-07T23:25:28.111Z,21.79
2018-08-07T23:27:57.292Z,21.73
2018-08-07T23:30:26.860Z,21.64
2018-08-07T23:32:56.033Z,21.63
2018-08-07T23:35:25.175Z,21.61
2018-08-07T23:37:54.296Z,21.48
2018-08-07T23:43:42.069Z,21.09
2018-08-07T23:49:30.939Z,21.20
2018-08-07T23:52:00.147Z,21.22
2018-08-07T23:54:29.405Z,21.21
2018-08-07T23:56:58.763Z,21.16
2018-08-07T23:59:27.980Z,21.16
